createdAt,value
2018-06-17T00:00:15.993Z,936.7
2018-06-17T00:01:16.875Z,936.7
2018-06-17T00:02:16.743Z,936.7
2018-06-17T00:03:16.614Z,936.7
2018-06-17T00:04:16.504Z,936.7
2018-06-17T00:05:16.403Z,936.6
2018-06-17T00:06:16.930Z,936.8
2018-06-17T00:07:16.992Z,936.2
2018-06-17T00:08:16.884Z,936.8
2018-06-17T00:09:16.767Z,936.8
2018-06-17T00:10:16.638Z,936.8
2018-06-17T00:11:17.503Z,936.8
2018-06-17T00:12:18.404Z,936.8
2018-06-17T00:13:18.302Z,936.8
2018-06-17T00:14:18.190Z,936.1
2018-06-17T00:15:18.758Z,936.8
2018-06-17T00:16:19.022Z,936.8
2018-06-17T00:17:21.512Z,936.7
2018-06-17T00:18:21.610Z,936.8
2018-06-17T00:19:21.490Z,936.4
2018-06-17T00:20:21.380Z,936.3
2018-06-17T00:21:22.256Z,936.8
2018-06-17T00:22:22.369Z,936.7
2018-06-17T00:23:22.480Z,936.7
2018-06-17T00:24:22.377Z,936.7
2018-06-17T00:25:22.269Z,936.7
2018-06-17T00:26:22.565Z,932.9
2018-06-17T00:27:25.411Z,936.7
2018-06-17T00:28:25.520Z,936.6
2018-06-17T00:29:25.404Z,936.7
2018-06-17T00:30:29.013Z,936.6
2018-06-17T00:31:28.868Z,936.7
2018-06-17T00:32:28.739Z,936.2
2018-06-17T00:33:29.622Z,936.7
2018-06-17T00:34:29.498Z,936.7
2018-06-17T00:35:29.379Z,936.6
2018-06-17T00:36:29.656Z,936.7
2018-06-17T00:37:29.733Z,936.7
2018-06-17T00:38:29.620Z,934
2018-06-17T00:39:30.485Z,936.7
2018-06-17T00:40:30.385Z,936.7
2018-06-17T00:41:30.458Z,936.7
2018-06-17T00:42:30.332Z,936.2
2018-06-17T00:43:30.224Z,936.7
2018-06-17T00:44:30.107Z,936.7
2018-06-17T00:45:30.177Z,934.3
2018-06-17T00:46:30.473Z,936.2
2018-06-17T00:47:30.369Z,936.2
2018-06-17T00:48:34.928Z,936.7
2018-06-17T00:49:34.816Z,935
2018-06-17T00:50:34.979Z,936.7
2018-06-17T00:51:34.881Z,936.7
2018-06-17T00:52:41.529Z,936.7
2018-06-17T00:53:44.193Z,936.7
2018-06-17T00:54:44.061Z,936.7
2018-06-17T00:55:43.986Z,936.7
2018-06-17T00:56:47.553Z,936.2
2018-06-17T00:57:47.431Z,936.7
2018-06-17T00:58:47.524Z,936.6
2018-06-17T00:59:47.419Z,936.7
2018-06-17T01:00:47.536Z,936.6
2018-06-17T01:01:47.427Z,936.7
2018-06-17T01:02:47.327Z,936.7
2018-06-17T01:03:47.421Z,936.7
2018-06-17T01:04:47.308Z,936.6
2018-06-17T01:05:47.190Z,936.2
2018-06-17T01:06:53.163Z,936.7
2018-06-17T01:07:53.045Z,936.2
2018-06-17T01:08:55.622Z,932.9
2018-06-17T01:09:55.502Z,936.7
2018-06-17T01:10:55.398Z,936.6
2018-06-17T01:11:58.258Z,936.6
2018-06-17T01:12:58.142Z,936.6
2018-06-17T01:13:58.012Z,936.1
2018-06-17T01:15:00.453Z,936.5
2018-06-17T01:16:00.316Z,936.6
2018-06-17T01:17:03.607Z,936.6
2018-06-17T01:18:03.479Z,936.6
2018-06-17T01:19:03.348Z,936.6
2018-06-17T01:20:05.832Z,936.6
2018-06-17T01:21:05.698Z,936.6
2018-06-17T01:22:05.584Z,936.5
2018-06-17T01:23:05.451Z,936.6
2018-06-17T01:24:06.322Z,936.6
2018-06-17T01:25:06.421Z,936.6
2018-06-17T01:26:06.293Z,936
2018-06-17T01:27:10.429Z,936.5
2018-06-17T01:28:13.518Z,936.6
2018-06-17T01:29:13.419Z,936.5
2018-06-17T01:30:13.311Z,936.5
2018-06-17T01:31:13.187Z,936.5
2018-06-17T01:32:13.303Z,936.5
2018-06-17T01:33:13.191Z,936
2018-06-17T01:34:15.930Z,936.5
2018-06-17T01:35:15.812Z,936.5
2018-06-17T01:36:15.676Z,936.5
2018-06-17T01:37:16.878Z,936.4
2018-06-17T01:38:16.736Z,936.4
2018-06-17T01:39:17.606Z,936.5
2018-06-17T01:40:17.531Z,936.5
2018-06-17T01:41:17.407Z,936.4
2018-06-17T01:42:17.290Z,936.4
2018-06-17T01:43:17.594Z,936.4
2018-06-17T01:44:17.457Z,936
2018-06-17T01:45:20.118Z,936.4
2018-06-17T01:46:19.988Z,936.4
2018-06-17T01:47:20.484Z,936.4
2018-06-17T01:48:20.374Z,936.4
2018-06-17T01:49:21.243Z,936.4
2018-06-17T01:50:23.848Z,936
2018-06-17T01:51:23.705Z,936.4
2018-06-17T01:52:23.616Z,936.4
2018-06-17T01:53:23.745Z,936.3
2018-06-17T01:54:23.662Z,936.4
2018-06-17T01:55:26.202Z,936.4
2018-06-17T01:56:26.066Z,936.4
2018-06-17T01:57:26.358Z,936
2018-06-17T01:58:26.221Z,936.4
2018-06-17T01:59:26.092Z,936.4
2018-06-17T02:00:26.960Z,935.9
2018-06-17T02:01:27.050Z,936.5
2018-06-17T02:02:26.930Z,936.5
2018-06-17T02:03:26.816Z,936.1
2018-06-17T02:04:26.717Z,936.5
2018-06-17T02:05:26.595Z,936.5
2018-06-17T02:06:26.695Z,936.6
2018-06-17T02:07:30.097Z,936.1
2018-06-17T02:08:32.865Z,936.5
2018-06-17T02:09:35.800Z,936.5
2018-06-17T02:10:35.681Z,936
2018-06-17T02:11:37.559Z,936.5
2018-06-17T02:12:37.685Z,936.4
2018-06-17T02:13:37.544Z,936.5
2018-06-17T02:14:38.410Z,936.5
2018-06-17T02:15:38.296Z,936.4
2018-06-17T02:16:38.174Z,936.4
2018-06-17T02:17:41.470Z,936.5
2018-06-17T02:18:41.324Z,936.3
2018-06-17T02:19:44.232Z,935.8
2018-06-17T02:20:44.116Z,936
2018-06-17T02:21:43.974Z,936.4
2018-06-17T02:22:43.851Z,936
2018-06-17T02:23:46.331Z,936.5
2018-06-17T02:24:47.191Z,936.4
2018-06-17T02:25:47.269Z,936.4
2018-06-17T02:26:47.142Z,933.6
2018-06-17T02:27:47.458Z,936.5
2018-06-17T02:28:49.901Z,936.4
2018-06-17T02:29:49.781Z,936.4
2018-06-17T02:30:49.897Z,936.4
2018-06-17T02:31:49.989Z,936.3
2018-06-17T02:32:49.899Z,936.3
2018-06-17T02:33:49.770Z,936.4
2018-06-17T02:34:50.640Z,936.4
2018-06-17T02:35:50.509Z,936.3
2018-06-17T02:36:50.447Z,936.4
2018-06-17T02:37:50.759Z,936.4
2018-06-17T02:38:53.585Z,936.4
2018-06-17T02:39:53.537Z,936.4
2018-06-17T02:40:53.406Z,936.4
2018-06-17T02:41:53.291Z,936.4
2018-06-17T02:42:53.207Z,936.5
2018-06-17T02:43:53.103Z,936.5
2018-06-17T02:44:52.989Z,936
2018-06-17T02:45:53.531Z,936.4
2018-06-17T02:46:53.432Z,936
2018-06-17T02:47:54.782Z,936.5
2018-06-17T02:48:58.281Z,936.5
2018-06-17T02:49:58.160Z,934.9
2018-06-17T02:51:00.882Z,936.5
2018-06-17T02:52:00.740Z,934.9
2018-06-17T02:53:00.646Z,936.5
2018-06-17T02:54:00.779Z,936.4
2018-06-17T02:55:00.693Z,936.4
2018-06-17T02:56:00.801Z,936.5
2018-06-17T02:57:00.677Z,936.4
2018-06-17T02:58:03.962Z,934.8
2018-06-17T02:59:03.849Z,936.1
2018-06-17T03:00:03.749Z,936.1
2018-06-17T03:01:03.665Z,936.2
2018-06-17T03:02:03.560Z,936.1
2018-06-17T03:03:06.025Z,936.1
2018-06-17T03:04:05.940Z,936.5
2018-06-17T03:05:05.855Z,936.5
2018-06-17T03:06:05.789Z,936.5
2018-06-17T03:07:05.902Z,936.5
2018-06-17T03:08:07.238Z,936.5
2018-06-17T03:09:07.369Z,936.5
2018-06-17T03:10:07.264Z,936.5
2018-06-17T03:11:10.084Z,936.5
2018-06-17T03:12:09.980Z,936.1
2018-06-17T03:13:18.517Z,936.6
2018-06-17T03:14:18.411Z,936.6
2018-06-17T03:15:19.322Z,936.2
2018-06-17T03:16:19.272Z,936.6
2018-06-17T03:17:19.404Z,936.7
2018-06-17T03:18:19.913Z,936.7
2018-06-17T03:19:20.826Z,936.6
2018-06-17T03:20:20.737Z,936.6
2018-06-17T03:21:20.845Z,936.7
2018-06-17T03:22:20.710Z,936.5
2018-06-17T03:23:21.593Z,936.7
2018-06-17T03:24:21.498Z,936.6
2018-06-17T03:25:21.374Z,936.8
2018-06-17T03:26:21.281Z,936.8
2018-06-17T03:27:21.169Z,936.7
2018-06-17T03:28:22.731Z,936.7
2018-06-17T03:29:22.677Z,936.3
2018-06-17T03:30:22.583Z,936.3
2018-06-17T03:31:22.464Z,936.8
2018-06-17T03:32:22.361Z,936.8
2018-06-17T03:33:23.703Z,936.3
2018-06-17T03:34:23.587Z,936.8
2018-06-17T03:35:23.470Z,936.7
2018-06-17T03:36:23.366Z,932.7
2018-06-17T03:37:23.246Z,936.3
2018-06-17T03:38:24.733Z,936.8
2018-06-17T03:39:24.616Z,936.8
2018-06-17T03:40:25.505Z,936.8
2018-06-17T03:41:26.458Z,936.8
2018-06-17T03:42:26.357Z,936.6
2018-06-17T03:43:29.140Z,936.9
2018-06-17T03:44:29.020Z,936.3
2018-06-17T03:45:28.910Z,936.8
2018-06-17T03:46:28.789Z,936.8
2018-06-17T03:47:30.950Z,936.9
2018-06-17T03:48:31.251Z,936.8
2018-06-17T03:49:31.133Z,936.8
2018-06-17T03:50:31.049Z,936.8
2018-06-17T03:51:31.133Z,934.4
2018-06-17T03:52:31.010Z,936.8
2018-06-17T03:53:36.568Z,936.3
2018-06-17T03:54:37.675Z,936.8
2018-06-17T03:55:40.654Z,936.8
2018-06-17T03:56:43.475Z,936.8
2018-06-17T03:57:46.246Z,936.8
2018-06-17T03:58:46.747Z,936.8
2018-06-17T03:59:46.840Z,936.7
2018-06-17T04:00:46.747Z,936.8
2018-06-17T04:01:46.629Z,936.8
2018-06-17T04:02:46.501Z,936.8
2018-06-17T04:03:46.398Z,936.9
2018-06-17T04:04:46.283Z,933
2018-06-17T04:05:50.140Z,936.9
2018-06-17T04:06:50.280Z,936.4
2018-06-17T04:07:50.375Z,936.5
2018-06-17T04:08:50.651Z,936.9
2018-06-17T04:09:50.529Z,936.9
2018-06-17T04:10:51.413Z,936.9
2018-06-17T04:11:51.276Z,936.9
2018-06-17T04:12:51.162Z,936.9
2018-06-17T04:13:53.967Z,937
2018-06-17T04:14:53.835Z,936.9
2018-06-17T04:15:53.999Z,937
2018-06-17T04:16:53.892Z,936.9
2018-06-17T04:17:53.777Z,936.9
2018-06-17T04:18:54.290Z,937
2018-06-17T04:19:56.975Z,937
2018-06-17T04:20:56.885Z,937
2018-06-17T04:21:56.968Z,937
2018-06-17T04:22:56.852Z,936.9
2018-06-17T04:23:56.713Z,936.9
2018-06-17T04:24:56.599Z,936.9
2018-06-17T04:25:56.681Z,937
2018-06-17T04:26:56.573Z,937
2018-06-17T04:27:56.459Z,936.5
2018-06-17T04:28:56.764Z,936.6
2018-06-17T04:29:59.646Z,936.5
2018-06-17T04:30:59.527Z,937
2018-06-17T04:31:59.427Z,937
2018-06-17T04:32:59.297Z,937
2018-06-17T04:33:59.146Z,937
2018-06-17T04:35:01.864Z,937
2018-06-17T04:36:01.736Z,936.5
2018-06-17T04:37:01.640Z,936.5
2018-06-17T04:38:01.506Z,936.9
2018-06-17T04:39:04.258Z,936.9
2018-06-17T04:40:04.139Z,937
2018-06-17T04:41:04.031Z,936.6
2018-06-17T04:42:04.369Z,937
2018-06-17T04:43:04.243Z,936.5
2018-06-17T04:44:05.105Z,937.1
2018-06-17T04:45:04.985Z,936.8
2018-06-17T04:46:04.882Z,936.5
2018-06-17T04:47:05.777Z,937.1
2018-06-17T04:48:05.643Z,937
2018-06-17T04:49:07.137Z,937.1
2018-06-17T04:50:07.031Z,937.1
2018-06-17T04:51:06.891Z,937.1
2018-06-17T04:52:06.779Z,937.1
2018-06-17T04:53:09.530Z,936.5
2018-06-17T04:54:09.419Z,937.1
2018-06-17T04:55:09.280Z,937.1
2018-06-17T04:56:09.368Z,937.1
2018-06-17T04:57:10.282Z,936.7
2018-06-17T04:58:10.161Z,937.2
2018-06-17T04:59:11.430Z,933.1
2018-06-17T05:00:11.319Z,936.7
2018-06-17T05:01:11.188Z,937.2
2018-06-17T05:02:13.930Z,937.1
2018-06-17T05:03:13.816Z,934.5
2018-06-17T05:04:17.608Z,933.2
2018-06-17T05:05:20.384Z,937.1
2018-06-17T05:06:20.240Z,937.1
2018-06-17T05:07:20.128Z,937.1
2018-06-17T05:08:20.249Z,937.1
2018-06-17T05:09:20.775Z,937.1
2018-06-17T05:10:20.619Z,937.1
2018-06-17T05:11:23.613Z,937.1
2018-06-17T05:12:23.751Z,937.2
2018-06-17T05:13:23.634Z,937.2
2018-06-17T05:14:23.793Z,937.2
2018-06-17T05:15:23.906Z,937.2
2018-06-17T05:16:23.791Z,937.1
2018-06-17T05:17:23.874Z,937.2
2018-06-17T05:18:23.776Z,937.2
2018-06-17T05:19:26.077Z,937.2
2018-06-17T05:20:25.958Z,937.2
2018-06-17T05:21:25.846Z,937.3
2018-06-17T05:22:35.518Z,937.2
2018-06-17T05:23:35.408Z,937.2
2018-06-17T05:24:35.264Z,937.2
2018-06-17T05:25:35.153Z,936.8
2018-06-17T05:26:37.763Z,937.1
2018-06-17T05:27:37.664Z,937.2
2018-06-17T05:28:37.767Z,937.3
2018-06-17T05:29:38.048Z,936.8
2018-06-17T05:30:38.926Z,937.3
2018-06-17T05:31:38.813Z,937.3
2018-06-17T05:32:39.690Z,936.9
2018-06-17T05:33:40.655Z,937.3
2018-06-17T05:34:43.321Z,937.3
2018-06-17T05:35:43.187Z,937.3
2018-06-17T05:36:43.112Z,936.9
2018-06-17T05:37:43.226Z,936.9
2018-06-17T05:38:43.112Z,936.8
2018-06-17T05:39:43.594Z,937.3
2018-06-17T05:40:43.467Z,937.3
2018-06-17T05:41:45.930Z,937.4
2018-06-17T05:42:49.536Z,937.4
2018-06-17T05:43:49.432Z,937.4
2018-06-17T05:44:52.345Z,937.3
2018-06-17T05:45:52.218Z,937.4
2018-06-17T05:46:52.086Z,937
2018-06-17T05:47:54.835Z,937.3
2018-06-17T05:48:54.742Z,937.3
2018-06-17T05:49:55.038Z,937.4
2018-06-17T05:50:55.126Z,937.4
2018-06-17T05:51:54.993Z,936.3
2018-06-17T05:52:54.874Z,937.4
2018-06-17T05:53:57.691Z,937.4
2018-06-17T05:54:57.565Z,936.9
2018-06-17T05:55:57.457Z,936.9
2018-06-17T05:56:57.360Z,937.4
2018-06-17T05:57:57.235Z,937.4
2018-06-17T05:58:57.122Z,937.4
2018-06-17T06:00:00.492Z,937.5
2018-06-17T06:01:00.392Z,937.3
2018-06-17T06:02:00.272Z,937
2018-06-17T06:03:03.069Z,937.4
2018-06-17T06:04:03.385Z,937.5
2018-06-17T06:05:08.843Z,937.5
2018-06-17T06:06:08.724Z,937.5
2018-06-17T06:07:09.602Z,937.5
2018-06-17T06:08:09.694Z,937.5
2018-06-17T06:09:09.586Z,937.5
2018-06-17T06:10:13.514Z,937.5
2018-06-17T06:11:14.061Z,937.1
2018-06-17T06:12:13.932Z,937.6
2018-06-17T06:13:13.804Z,937.5
2018-06-17T06:14:13.721Z,937.6
2018-06-17T06:15:13.825Z,937.6
2018-06-17T06:16:13.724Z,937.5
2018-06-17T06:17:16.236Z,937.6
2018-06-17T06:18:16.208Z,937.6
2018-06-17T06:19:16.215Z,937.6
2018-06-17T06:20:17.014Z,937.6
2018-06-17T06:21:20.985Z,937.2
2018-06-17T06:22:20.867Z,937.6
2018-06-17T06:23:24.015Z,937.7
2018-06-17T06:24:23.910Z,937.6
2018-06-17T06:25:26.387Z,937.7
2018-06-17T06:26:26.520Z,937.6
2018-06-17T06:27:26.770Z,937.2
2018-06-17T06:28:26.679Z,937.6
2018-06-17T06:29:26.631Z,937.6
2018-06-17T06:30:32.508Z,937.2
2018-06-17T06:31:32.396Z,937.6
2018-06-17T06:32:32.491Z,937.5
2018-06-17T06:33:32.367Z,937.5
2018-06-17T06:34:33.293Z,937.5
2018-06-17T06:35:34.171Z,937.5
2018-06-17T06:36:34.264Z,937.6
2018-06-17T06:37:34.372Z,937.6
2018-06-17T06:38:34.250Z,937.6
2018-06-17T06:39:34.152Z,937.6
2018-06-17T06:40:38.377Z,937.7
2018-06-17T06:41:41.036Z,937.2
2018-06-17T06:42:44.583Z,937.3
2018-06-17T06:43:44.469Z,937.7
2018-06-17T06:44:45.440Z,937.7
2018-06-17T06:45:45.356Z,937.6
2018-06-17T06:46:46.292Z,937.7
2018-06-17T06:47:46.170Z,934.5
2018-06-17T06:48:54.808Z,937.7
2018-06-17T06:49:56.011Z,937.7
2018-06-17T06:50:57.044Z,937.7
2018-06-17T06:51:57.066Z,937.3
2018-06-17T06:52:58.945Z,937.7
2018-06-17T06:53:58.855Z,937.8
2018-06-17T06:55:01.758Z,937.7
2018-06-17T06:56:01.882Z,934.6
2018-06-17T06:57:01.745Z,937.8
2018-06-17T06:58:01.628Z,937.8
2018-06-17T06:59:02.573Z,937.7
2018-06-17T07:00:03.154Z,937.8
2018-06-17T07:01:03.454Z,937.4
2018-06-17T07:02:06.093Z,937.7
2018-06-17T07:03:06.206Z,937.8
2018-06-17T07:04:06.120Z,937.4
2018-06-17T07:05:06.014Z,937.8
2018-06-17T07:06:05.894Z,937.8
2018-06-17T07:07:05.763Z,937.8
2018-06-17T07:08:05.855Z,937.3
2018-06-17T07:09:05.747Z,937.5
2018-06-17T07:10:08.606Z,937.8
2018-06-17T07:11:11.882Z,937.9
2018-06-17T07:12:11.760Z,937.8
2018-06-17T07:13:12.651Z,937.5
2018-06-17T07:14:19.253Z,937.7
2018-06-17T07:15:19.144Z,937.8
2018-06-17T07:16:20.009Z,937.8
2018-06-17T07:17:20.083Z,937.8
2018-06-17T07:18:19.963Z,937.8
2018-06-17T07:19:25.694Z,937.4
2018-06-17T07:20:25.605Z,937.8
2018-06-17T07:21:26.922Z,937.9
2018-06-17T07:22:26.802Z,937.9
2018-06-17T07:23:26.965Z,937.8
2018-06-17T07:24:26.840Z,937.5
2018-06-17T07:25:26.732Z,937.9
2018-06-17T07:26:28.619Z,937.9
2018-06-17T07:27:28.509Z,937.6
2018-06-17T07:28:32.396Z,938
2018-06-17T07:29:32.292Z,937.9
2018-06-17T07:30:35.014Z,937.9
2018-06-17T07:31:35.359Z,938
2018-06-17T07:32:35.680Z,938
2018-06-17T07:33:35.576Z,938
2018-06-17T07:34:35.667Z,937.9
2018-06-17T07:35:35.575Z,937.9
2018-06-17T07:36:35.464Z,938
2018-06-17T07:37:36.334Z,938
2018-06-17T07:38:36.225Z,938
2018-06-17T07:39:36.113Z,937.9
2018-06-17T07:40:36.254Z,937.9
2018-06-17T07:41:36.602Z,938
2018-06-17T07:42:39.679Z,938
2018-06-17T07:43:39.544Z,938
2018-06-17T07:44:39.634Z,938.1
2018-06-17T07:45:39.527Z,938
2018-06-17T07:46:43.095Z,938
2018-06-17T07:47:42.975Z,937.7
2018-06-17T07:48:43.902Z,938
2018-06-17T07:49:43.780Z,938
2018-06-17T07:50:43.947Z,937.4
2018-06-17T07:51:44.243Z,937.7
2018-06-17T07:52:44.158Z,938
2018-06-17T07:53:44.044Z,937.7
2018-06-17T07:54:49.716Z,938.1
2018-06-17T07:55:53.366Z,937.9
2018-06-17T07:56:53.465Z,938
2018-06-17T07:57:53.351Z,938.1
2018-06-17T07:58:55.963Z,937.7
2018-06-17T07:59:56.846Z,938
2018-06-17T08:00:57.444Z,938
2018-06-17T08:01:57.770Z,938
2018-06-17T08:02:57.650Z,936.9
2018-06-17T08:04:01.268Z,938.1
2018-06-17T08:05:03.825Z,938.1
2018-06-17T08:06:04.028Z,938
2018-06-17T08:07:07.793Z,937.7
2018-06-17T08:08:07.690Z,938.1
2018-06-17T08:09:08.581Z,938.1
2018-06-17T08:10:08.463Z,938.2
2018-06-17T08:11:08.899Z,938.2
2018-06-17T08:12:09.203Z,938.1
2018-06-17T08:13:09.079Z,936.4
2018-06-17T08:14:11.547Z,938.2
2018-06-17T08:15:11.465Z,937.4
2018-06-17T08:16:11.375Z,938.2
2018-06-17T08:17:15.192Z,938.2
2018-06-17T08:18:15.065Z,938.2
2018-06-17T08:19:14.964Z,937.9
2018-06-17T08:20:15.241Z,938.2
2018-06-17T08:21:15.144Z,938.2
2018-06-17T08:22:15.675Z,937.9
2018-06-17T08:23:22.212Z,937.2
2018-06-17T08:24:22.097Z,938.2
2018-06-17T08:25:22.185Z,938.2
2018-06-17T08:26:22.317Z,938.2
2018-06-17T08:27:25.913Z,938.2
2018-06-17T08:28:25.802Z,938.2
2018-06-17T08:29:30.824Z,938.2
2018-06-17T08:30:31.107Z,938.2
2018-06-17T08:31:34.814Z,938.2
2018-06-17T08:32:37.894Z,938.2
2018-06-17T08:33:37.752Z,938.3
2018-06-17T08:34:37.660Z,938.2
2018-06-17T08:35:40.233Z,938.3
2018-06-17T08:36:40.129Z,938.3
2018-06-17T08:37:40.023Z,938.4
2018-06-17T08:38:39.899Z,938.2
2018-06-17T08:39:39.780Z,938.3
2018-06-17T08:40:42.784Z,938.2
2018-06-17T08:41:43.676Z,937.5
2018-06-17T08:42:47.662Z,937.8
2018-06-17T08:43:47.573Z,937.8
2018-06-17T08:44:49.522Z,938.3
2018-06-17T08:45:49.520Z,938.3
2018-06-17T08:46:49.817Z,938.2
2018-06-17T08:47:49.977Z,938.2
2018-06-17T08:48:50.842Z,938.3
2018-06-17T08:49:50.738Z,938.2
2018-06-17T08:50:51.617Z,937.8
2018-06-17T08:51:51.509Z,938.2
2018-06-17T08:52:53.018Z,938.2
2018-06-17T08:53:52.922Z,938.2
2018-06-17T08:54:53.806Z,938.2
2018-06-17T08:55:54.688Z,938.2
2018-06-17T08:56:54.801Z,938.2
2018-06-17T08:57:54.898Z,938.3
2018-06-17T08:58:54.795Z,938.3
2018-06-17T08:59:54.660Z,938.2
2018-06-17T09:00:54.745Z,937.9
2018-06-17T09:01:54.644Z,938.2
2018-06-17T09:02:54.999Z,938.2
2018-06-17T09:03:54.869Z,938.3
2018-06-17T09:04:54.762Z,938.2
2018-06-17T09:05:55.071Z,938.3
2018-06-17T09:06:54.946Z,938.3
2018-06-17T09:07:55.109Z,938.3
2018-06-17T09:08:54.979Z,938.3
2018-06-17T09:09:54.855Z,938.3
2018-06-17T09:10:54.941Z,938.2
2018-06-17T09:11:54.810Z,938.4
2018-06-17T09:12:55.395Z,938.4
2018-06-17T09:13:55.320Z,938.3
2018-06-17T09:14:55.183Z,938.4
2018-06-17T09:15:55.102Z,938
2018-06-17T09:16:55.980Z,938.5
2018-06-17T09:17:56.490Z,938.5
2018-06-17T09:18:56.381Z,938.3
2018-06-17T09:19:56.495Z,938.4
2018-06-17T09:20:56.660Z,938.4
2018-06-17T09:21:56.752Z,938.3
2018-06-17T09:22:59.832Z,938.4
2018-06-17T09:24:03.728Z,938.4
2018-06-17T09:25:03.616Z,938.4
2018-06-17T09:26:05.180Z,935.4
2018-06-17T09:27:05.064Z,938.4
2018-06-17T09:28:04.950Z,938.4
2018-06-17T09:29:04.855Z,938.3
2018-06-17T09:30:04.735Z,938.4
2018-06-17T09:31:04.610Z,938.3
2018-06-17T09:32:05.203Z,937.5
2018-06-17T09:33:05.923Z,938.4
2018-06-17T09:34:05.829Z,938.4
2018-06-17T09:35:06.366Z,935.5
2018-06-17T09:36:06.261Z,938
2018-06-17T09:37:08.936Z,937.8
2018-06-17T09:38:08.814Z,938.3
2018-06-17T09:39:08.740Z,938
2018-06-17T09:40:08.625Z,938.4
2018-06-17T09:41:11.260Z,938.3
2018-06-17T09:42:11.143Z,938.3
2018-06-17T09:43:15.122Z,937.9
2018-06-17T09:44:15.254Z,938.4
2018-06-17T09:45:15.158Z,938.4
2018-06-17T09:46:15.030Z,937.9
2018-06-17T09:47:17.533Z,938.2
2018-06-17T09:48:17.428Z,938.4
2018-06-17T09:49:17.340Z,938.4
2018-06-17T09:50:17.208Z,938
2018-06-17T09:51:17.108Z,938
2018-06-17T09:52:16.999Z,938.4
2018-06-17T09:53:17.508Z,938.3
2018-06-17T09:54:17.379Z,938.4
2018-06-17T09:55:17.260Z,938.4
2018-06-17T09:56:17.505Z,938.4
2018-06-17T09:57:17.431Z,938.4
2018-06-17T09:58:17.286Z,938.4
2018-06-17T09:59:17.181Z,938
2018-06-17T10:00:17.743Z,938.5
2018-06-17T10:01:17.618Z,938.4
2018-06-17T10:02:17.506Z,938.5
2018-06-17T10:03:17.800Z,938.4
2018-06-17T10:04:17.746Z,938.5
2018-06-17T10:05:17.671Z,938.5
2018-06-17T10:06:17.542Z,938.5
2018-06-17T10:07:17.419Z,938.4
2018-06-17T10:08:17.296Z,938.4
2018-06-17T10:09:17.851Z,938
2018-06-17T10:10:17.746Z,938.4
2018-06-17T10:11:18.018Z,938
2018-06-17T10:12:18.551Z,938.4
2018-06-17T10:13:20.170Z,938
2018-06-17T10:14:20.058Z,937.8
2018-06-17T10:15:20.938Z,938.5
2018-06-17T10:16:20.809Z,938.5
2018-06-17T10:17:20.936Z,938.5
2018-06-17T10:18:20.832Z,938.5
2018-06-17T10:19:20.724Z,938.4
2018-06-17T10:20:21.288Z,938.5
2018-06-17T10:21:21.201Z,938.5
2018-06-17T10:22:21.096Z,938.5
2018-06-17T10:23:21.782Z,938.5
2018-06-17T10:24:21.680Z,938.4
2018-06-17T10:25:21.569Z,938.5
2018-06-17T10:26:21.462Z,938.1
2018-06-17T10:27:21.339Z,938.5
2018-06-17T10:28:21.288Z,938.5
2018-06-17T10:29:21.902Z,938.5
2018-06-17T10:30:22.079Z,938.5
2018-06-17T10:31:22.185Z,938.5
2018-06-17T10:32:22.106Z,938.5
2018-06-17T10:33:22.447Z,938.4
2018-06-17T10:34:22.324Z,938
2018-06-17T10:35:22.228Z,938.1
2018-06-17T10:36:22.125Z,938.4
2018-06-17T10:37:22.470Z,938.5
2018-06-17T10:38:22.340Z,938.5
2018-06-17T10:39:22.207Z,938.4
2018-06-17T10:40:22.098Z,938.5
2018-06-17T10:41:22.000Z,938.4
2018-06-17T10:42:21.907Z,938.5
2018-06-17T10:43:22.223Z,938.4
2018-06-17T10:44:22.740Z,938.4
2018-06-17T10:45:22.759Z,938.4
2018-06-17T10:46:22.726Z,938
2018-06-17T10:47:25.318Z,938.4
2018-06-17T10:48:25.246Z,938.4
2018-06-17T10:49:25.140Z,938.4
2018-06-17T10:50:25.607Z,938
2018-06-17T10:51:25.740Z,937.3
2018-06-17T10:52:25.674Z,938.4
2018-06-17T10:53:30.417Z,938.3
2018-06-17T10:54:30.304Z,938.3
2018-06-17T10:55:30.169Z,938.3
2018-06-17T10:56:30.085Z,938.3
2018-06-17T10:57:29.944Z,938.3
2018-06-17T10:58:33.828Z,938.3
2018-06-17T10:59:33.706Z,938.2
2018-06-17T11:00:33.605Z,938.2
2018-06-17T11:01:33.519Z,938.3
2018-06-17T11:02:33.405Z,938.2
2018-06-17T11:03:36.348Z,937.9
2018-06-17T11:04:36.212Z,938.3
2018-06-17T11:05:46.071Z,938.4
2018-06-17T11:06:46.011Z,937.9
2018-06-17T11:07:45.886Z,938.3
2018-06-17T11:08:46.012Z,938
2018-06-17T11:09:45.899Z,938.3
2018-06-17T11:10:45.788Z,938.3
2018-06-17T11:11:45.669Z,938.3
2018-06-17T11:12:45.546Z,938.2
2018-06-17T11:13:46.115Z,938.2
2018-06-17T11:14:49.582Z,938.3
2018-06-17T11:15:49.472Z,938.3
2018-06-17T11:16:49.362Z,937.8
2018-06-17T11:17:49.475Z,938.3
2018-06-17T11:18:49.359Z,937.8
2018-06-17T11:19:49.241Z,938.2
2018-06-17T11:20:49.152Z,938.2
2018-06-17T11:21:49.268Z,938.2
2018-06-17T11:22:49.147Z,938.3
2018-06-17T11:23:49.712Z,936.7
2018-06-17T11:24:49.631Z,938.2
2018-06-17T11:25:49.518Z,938.2
2018-06-17T11:26:50.083Z,938.2
2018-06-17T11:27:49.956Z,938.2
2018-06-17T11:28:49.865Z,938.2
2018-06-17T11:29:50.002Z,938.1
2018-06-17T11:30:49.901Z,938.2
2018-06-17T11:31:49.777Z,938.1
2018-06-17T11:32:49.657Z,937.8
2018-06-17T11:33:49.987Z,937.8
2018-06-17T11:34:49.873Z,938
2018-06-17T11:35:49.750Z,938.1
2018-06-17T11:36:49.697Z,938
2018-06-17T11:37:49.584Z,938.1
2018-06-17T11:38:50.524Z,938.1
2018-06-17T11:39:50.425Z,937.7
2018-06-17T11:40:50.312Z,938
2018-06-17T11:41:50.200Z,938
2018-06-17T11:42:50.299Z,938.1
2018-06-17T11:43:50.591Z,938
2018-06-17T11:44:50.726Z,938.1
2018-06-17T11:45:50.620Z,938
2018-06-17T11:46:50.502Z,938.1
2018-06-17T11:47:50.401Z,936.8
2018-06-17T11:48:50.291Z,937.7
2018-06-17T11:49:50.450Z,938
2018-06-17T11:50:50.431Z,938
2018-06-17T11:51:50.327Z,936.8
2018-06-17T11:52:50.500Z,938.1
2018-06-17T11:53:50.806Z,938
2018-06-17T11:54:50.717Z,938.1
2018-06-17T11:55:59.377Z,938.1
2018-06-17T11:56:59.250Z,937.7
2018-06-17T11:57:59.122Z,938.1
2018-06-17T11:59:01.612Z,938.1
2018-06-17T12:00:01.495Z,938
2018-06-17T12:01:01.379Z,938
2018-06-17T12:02:04.197Z,937.6
2018-06-17T12:03:04.100Z,938
2018-06-17T12:04:07.103Z,938.1
2018-06-17T12:05:06.995Z,938
2018-06-17T12:06:06.897Z,937.6
2018-06-17T12:07:06.773Z,938
2018-06-17T12:08:07.307Z,937.6
2018-06-17T12:09:07.185Z,938
2018-06-17T12:10:07.076Z,938
2018-06-17T12:11:07.173Z,938.1
2018-06-17T12:12:07.074Z,938
2018-06-17T12:13:06.959Z,938.1
2018-06-17T12:14:08.275Z,937.7
2018-06-17T12:15:08.163Z,938.1
2018-06-17T12:16:10.726Z,938
2018-06-17T12:17:10.616Z,938
2018-06-17T12:18:10.509Z,938.1
2018-06-17T12:19:10.407Z,938
2018-06-17T12:20:10.299Z,938
2018-06-17T12:21:13.222Z,938
2018-06-17T12:22:13.112Z,938
2018-06-17T12:23:12.999Z,938
2018-06-17T12:24:13.388Z,938
2018-06-17T12:25:13.520Z,938
2018-06-17T12:26:13.392Z,938
2018-06-17T12:27:13.293Z,937.9
2018-06-17T12:28:13.167Z,938
2018-06-17T12:29:13.140Z,938
2018-06-17T12:30:13.042Z,937.9
2018-06-17T12:31:12.965Z,937.9
2018-06-17T12:32:13.165Z,938
2018-06-17T12:33:13.033Z,938
2018-06-17T12:34:13.478Z,938
2018-06-17T12:35:13.369Z,938
2018-06-17T12:36:13.255Z,937.7
2018-06-17T12:37:13.144Z,937.6
2018-06-17T12:38:13.028Z,938
2018-06-17T12:39:12.957Z,938.1
2018-06-17T12:40:12.852Z,938
2018-06-17T12:41:12.765Z,937.5
2018-06-17T12:42:12.671Z,937.6
2018-06-17T12:43:12.556Z,938.1
2018-06-17T12:44:12.862Z,938
2018-06-17T12:45:12.772Z,938
2018-06-17T12:46:12.651Z,938
2018-06-17T12:47:12.544Z,938
2018-06-17T12:48:12.429Z,938
2018-06-17T12:49:12.327Z,938
2018-06-17T12:50:12.215Z,937.5
2018-06-17T12:51:12.106Z,937.8
2018-06-17T12:52:12.235Z,937.9
2018-06-17T12:53:12.125Z,937.6
2018-06-17T12:54:12.433Z,937.9
2018-06-17T12:55:12.333Z,937.8
2018-06-17T12:56:12.206Z,937.9
2018-06-17T12:57:12.098Z,937.8
2018-06-17T12:58:12.228Z,937.7
2018-06-17T12:59:12.119Z,937.8
2018-06-17T13:00:11.987Z,937.8
2018-06-17T13:01:12.537Z,937.8
2018-06-17T13:02:12.434Z,937.9
2018-06-17T13:03:12.314Z,937.5
2018-06-17T13:04:12.617Z,937.4
2018-06-17T13:05:12.511Z,937.8
2018-06-17T13:06:12.399Z,937.8
2018-06-17T13:07:12.291Z,937.8